createdAt,value
2018-07-11T00:01:14.265Z,14.70
2018-07-11T00:03:57.569Z,14.60
2018-07-11T00:06:25.935Z,14.70
2018-07-11T00:08:53.571Z,14.70
2018-07-11T00:11:21.078Z,14.80
2018-07-11T00:13:48.960Z,14.80
2018-07-11T00:16:16.712Z,14.70
2018-07-11T00:18:44.178Z,14.80
2018-07-11T00:21:11.534Z,14.80
2018-07-11T00:23:38.931Z,14.90
2018-07-11T00:26:07.305Z,14.90
2018-07-11T00:28:34.800Z,14.90
2018-07-11T00:31:02.333Z,14.80
2018-07-11T00:33:30.401Z,14.90
2018-07-11T00:35:57.928Z,14.90
2018-07-11T00:38:25.450Z,14.90
2018-07-11T00:40:53.075Z,14.80
2018-07-11T00:43:20.594Z,14.90
2018-07-11T00:45:48.282Z,14.90
2018-07-11T00:48:16.015Z,14.80
2018-07-11T00:50:43.503Z,14.90
2018-07-11T00:53:11.314Z,14.90
2018-07-11T00:55:38.837Z,14.90
2018-07-11T00:58:10.725Z,14.90
2018-07-11T01:00:38.062Z,14.90
2018-07-11T01:03:05.496Z,14.90
2018-07-11T01:05:32.891Z,14.90
2018-07-11T01:08:00.399Z,15.00
2018-07-11T01:10:27.943Z,15.00
2018-07-11T01:12:55.368Z,14.90
2018-07-11T01:15:22.834Z,14.90
2018-07-11T01:17:55.932Z,14.90
2018-07-11T01:22:50.762Z,14.80
2018-07-11T01:25:18.233Z,14.90
2018-07-11T01:27:45.632Z,15.00
2018-07-11T01:30:13.019Z,15.00
2018-07-11T01:32:40.586Z,15.20
2018-07-11T01:35:08.046Z,15.20
2018-07-11T01:37:35.446Z,15.10
2018-07-11T01:40:02.867Z,15.00
2018-07-11T01:42:30.529Z,14.90
2018-07-11T01:44:57.856Z,14.90
2018-07-11T01:47:25.346Z,15.00
2018-07-11T01:49:52.813Z,15.10
2018-07-11T01:52:31.645Z,15.00
2018-07-11T01:54:59.118Z,14.90
2018-07-11T01:57:26.513Z,15.00
2018-07-11T01:59:53.915Z,14.90
2018-07-11T02:02:23.725Z,14.90
2018-07-11T02:04:51.268Z,14.90
2018-07-11T02:07:18.594Z,14.90
2018-07-11T02:09:46.077Z,14.80
2018-07-11T02:12:13.513Z,14.80
2018-07-11T02:14:40.990Z,14.70
2018-07-11T02:17:08.446Z,14.70
2018-07-11T02:19:36.026Z,14.70
2018-07-11T02:22:03.482Z,14.70
2018-07-11T02:24:31.017Z,14.60
2018-07-11T02:26:58.534Z,14.50
2018-07-11T02:29:26.267Z,14.50
2018-07-11T02:31:53.675Z,14.60
2018-07-11T02:34:25.786Z,14.60
2018-07-11T02:36:53.311Z,14.60
2018-07-11T02:39:20.653Z,14.60
2018-07-11T02:41:48.176Z,14.60
2018-07-11T02:44:15.662Z,14.60
2018-07-11T02:46:49.006Z,14.60
2018-07-11T02:49:16.450Z,14.60
2018-07-11T02:51:43.841Z,14.50
2018-07-11T02:54:11.245Z,14.40
2018-07-11T02:56:38.707Z,14.40
2018-07-11T02:59:06.100Z,14.40
2018-07-11T03:01:33.521Z,14.50
2018-07-11T03:04:01.033Z,14.40
2018-07-11T03:06:28.490Z,14.40
2018-07-11T03:08:55.837Z,14.40
2018-07-11T03:11:23.200Z,14.30
2018-07-11T03:13:50.603Z,14.30
2018-07-11T03:16:18.155Z,14.30
2018-07-11T03:18:45.601Z,14.30
2018-07-11T03:21:13.148Z,14.50
2018-07-11T03:23:40.570Z,14.60
2018-07-11T03:26:08.698Z,14.50
2018-07-11T03:28:36.134Z,14.40
2018-07-11T03:31:03.567Z,14.30
2018-07-11T03:33:31.030Z,14.30
2018-07-11T03:35:58.535Z,14.30
2018-07-11T03:38:25.972Z,14.20
2018-07-11T03:40:53.374Z,14.30
2018-07-11T03:43:20.667Z,14.20
2018-07-11T03:45:48.043Z,14.10
2018-07-11T03:48:15.459Z,14.10
2018-07-11T03:50:42.862Z,14.00
2018-07-11T03:53:11.366Z,13.90
2018-07-11T03:55:38.829Z,14.00
2018-07-11T03:58:06.298Z,14.10
2018-07-11T04:00:33.706Z,14.00
2018-07-11T04:03:01.139Z,14.10
2018-07-11T04:05:32.777Z,14.00
2018-07-11T04:08:05.982Z,14.10
2018-07-11T04:10:35.766Z,14.00
2018-07-11T04:13:03.183Z,14.00
2018-07-11T04:15:30.620Z,14.00
2018-07-11T04:17:59.352Z,14.00
2018-07-11T04:20:27.539Z,13.90
2018-07-11T04:22:55.082Z,14.00
2018-07-11T04:25:22.490Z,13.90
2018-07-11T04:27:49.903Z,13.80
2018-07-11T04:30:17.382Z,14.00
2018-07-11T04:32:44.840Z,13.90
2018-07-11T04:35:12.440Z,14.00
2018-07-11T04:37:39.755Z,14.10
2018-07-11T04:40:07.168Z,14.10
2018-07-11T04:42:34.630Z,14.10
2018-07-11T04:45:02.027Z,14.10
2018-07-11T04:47:29.446Z,14.10
2018-07-11T04:49:57.326Z,14.20
2018-07-11T04:52:24.830Z,14.20
2018-07-11T04:54:52.294Z,14.30
2018-07-11T04:57:19.738Z,14.30
2018-07-11T04:59:47.228Z,14.40
2018-07-11T05:02:14.790Z,14.60
2018-07-11T05:04:42.157Z,14.50
2018-07-11T05:07:09.498Z,14.40
2018-07-11T05:09:36.873Z,14.40
2018-07-11T05:12:04.303Z,14.40
2018-07-11T05:14:31.738Z,14.40
2018-07-11T05:16:59.246Z,14.50
2018-07-11T05:19:26.584Z,14.40
2018-07-11T05:21:54.032Z,14.40
2018-07-11T05:26:48.758Z,14.30
2018-07-11T05:29:16.149Z,14.20
2018-07-11T05:31:43.541Z,14.30
2018-07-11T05:34:10.874Z,14.30
2018-07-11T05:36:38.210Z,14.30
2018-07-11T05:39:05.570Z,14.30
2018-07-11T05:41:32.946Z,14.40
2018-07-11T05:44:00.354Z,14.40
2018-07-11T05:46:27.865Z,14.40
2018-07-11T05:48:55.254Z,14.50
2018-07-11T05:51:22.725Z,14.60
2018-07-11T05:53:50.170Z,14.60
2018-07-11T05:56:17.694Z,14.60
2018-07-11T05:58:45.013Z,14.60
2018-07-11T06:01:12.529Z,14.40
2018-07-11T06:03:39.910Z,14.40
2018-07-11T06:06:07.538Z,14.40
2018-07-11T06:11:03.004Z,14.50
2018-07-11T06:13:30.567Z,14.40
2018-07-11T06:15:57.933Z,14.40
2018-07-11T06:18:25.457Z,14.40
2018-07-11T06:20:52.913Z,14.40
2018-07-11T06:23:20.333Z,14.40
2018-07-11T06:25:47.674Z,14.50
2018-07-11T06:28:15.135Z,14.50
2018-07-11T06:30:42.525Z,14.60
2018-07-11T06:33:09.897Z,14.60
2018-07-11T06:35:37.253Z,14.70
2018-07-11T06:38:04.565Z,14.80
2018-07-11T06:40:31.997Z,14.70
2018-07-11T06:42:59.339Z,14.80
2018-07-11T06:45:26.789Z,15.00
2018-07-11T06:47:54.160Z,15.20
2018-07-11T06:50:21.521Z,15.10
2018-07-11T06:52:48.913Z,15.10
2018-07-11T06:55:16.276Z,15.10
2018-07-11T06:57:43.675Z,15.20
2018-07-11T07:00:11.061Z,15.20
2018-07-11T07:02:38.472Z,15.20
2018-07-11T07:05:05.893Z,15.20
2018-07-11T07:07:33.257Z,15.00
2018-07-11T07:10:00.667Z,15.20
2018-07-11T07:12:28.032Z,15.40
2018-07-11T07:14:55.467Z,15.40
2018-07-11T07:17:22.882Z,15.40
2018-07-11T07:19:50.215Z,15.40
2018-07-11T07:22:17.623Z,15.40
2018-07-11T07:24:44.979Z,15.50
2018-07-11T07:27:12.318Z,15.50
2018-07-11T07:29:39.720Z,15.50
2018-07-11T07:32:07.099Z,15.40
2018-07-11T07:37:01.881Z,15.40
2018-07-11T07:39:29.386Z,15.30
2018-07-11T07:44:24.261Z,15.40
2018-07-11T07:46:57.543Z,15.30
2018-07-11T07:49:24.953Z,15.40
2018-07-11T07:51:52.429Z,15.40
2018-07-11T07:54:19.839Z,15.40
2018-07-11T07:56:47.199Z,15.40
2018-07-11T08:01:42.264Z,15.50
2018-07-11T08:04:10.926Z,15.60
2018-07-11T08:06:38.426Z,15.80
2018-07-11T08:09:05.855Z,15.80
2018-07-11T08:11:33.320Z,15.90
2018-07-11T08:14:00.818Z,16.00
2018-07-11T08:16:28.226Z,16.10
2018-07-11T08:18:55.647Z,16.10
2018-07-11T08:21:23.130Z,16.10
2018-07-11T08:24:01.998Z,16.20
2018-07-11T08:26:40.918Z,16.40
2018-07-11T08:30:20.900Z,16.90
2018-07-11T08:34:02.696Z,17.30
2018-07-11T08:37:02.155Z,17.70
2018-07-11T08:42:55.635Z,17.80
2018-07-11T08:45:34.540Z,18.00
2018-07-11T08:48:20.230Z,18.50
2018-07-11T08:53:01.420Z,18.80
2018-07-11T08:55:41.474Z,19.20
2018-07-11T08:58:23.090Z,18.70
2018-07-11T09:01:03.674Z,18.50
2018-07-11T09:03:51.072Z,18.30
2018-07-11T09:07:29.850Z,17.90
2018-07-11T09:10:08.630Z,17.80
2018-07-11T09:13:22.777Z,17.60
2018-07-11T09:17:09.023Z,17.70
2018-07-11T09:20:35.007Z,17.60
2018-07-11T09:23:33.711Z,17.60
2018-07-11T09:26:01.044Z,17.70
2018-07-11T09:28:28.449Z,17.60
2018-07-11T09:30:56.017Z,17.60
2018-07-11T09:33:23.413Z,17.60
2018-07-11T09:35:50.897Z,17.50
2018-07-11T09:38:18.239Z,17.40
2018-07-11T09:40:45.726Z,17.40
2018-07-11T09:43:13.203Z,17.50
2018-07-11T09:45:41.871Z,17.80
2018-07-11T09:48:09.390Z,18.30
2018-07-11T09:50:37.997Z,18.50
2018-07-11T09:53:05.529Z,18.60
2018-07-11T09:55:34.143Z,18.30
2018-07-11T09:58:01.612Z,18.30
2018-07-11T10:00:34.806Z,18.00
2018-07-11T10:03:03.300Z,18.30
2018-07-11T10:05:35.179Z,18.30
2018-07-11T10:08:05.887Z,18.30
2018-07-11T10:10:35.974Z,18.50
2018-07-11T10:13:09.135Z,18.60
2018-07-11T10:15:36.699Z,18.60
2018-07-11T10:18:04.211Z,18.60
2018-07-11T10:20:32.492Z,18.30
2018-07-11T10:23:01.189Z,18.10
2018-07-11T10:25:28.670Z,18.20
2018-07-11T10:28:07.511Z,18.50
2018-07-11T10:30:34.923Z,18.70
2018-07-11T10:33:10.440Z,19.00
2018-07-11T10:35:39.170Z,18.80
2018-07-11T10:38:09.207Z,18.70
2018-07-11T10:40:36.798Z,18.40
2018-07-11T10:43:04.259Z,18.50
2018-07-11T10:45:32.714Z,18.80
2018-07-11T10:48:01.011Z,19.10
2018-07-11T10:50:28.527Z,19.40
2018-07-11T10:52:56.007Z,19.60
2018-07-11T10:55:24.347Z,19.30
2018-07-11T10:57:52.248Z,19.10
2018-07-11T11:02:51.743Z,18.70
2018-07-11T11:05:20.382Z,18.60
2018-07-11T11:07:47.936Z,18.60
2018-07-11T11:10:15.342Z,18.70
2018-07-11T11:12:43.616Z,18.70
2018-07-11T11:15:11.356Z,18.80
2018-07-11T11:17:38.909Z,18.80
2018-07-11T11:20:06.370Z,19.00
2018-07-11T11:22:34.488Z,18.90
2018-07-11T11:25:01.927Z,19.20
2018-07-11T11:27:30.606Z,19.60
2018-07-11T11:29:58.003Z,19.80
2018-07-11T11:32:27.290Z,19.80
2018-07-11T11:34:54.766Z,19.80
2018-07-11T11:37:22.950Z,19.80
2018-07-11T11:39:50.654Z,19.80
2018-07-11T11:42:20.806Z,19.80
2018-07-11T11:44:48.976Z,19.90
2018-07-11T11:47:21.848Z,19.90
2018-07-11T11:49:49.510Z,19.80
2018-07-11T11:52:17.018Z,19.00
2018-07-11T11:54:45.536Z,18.60
2018-07-11T11:57:13.771Z,18.60
2018-07-11T11:59:41.350Z,18.60
2018-07-11T12:02:08.811Z,18.60
2018-07-11T12:04:36.216Z,18.90
2018-07-11T12:07:05.952Z,19.30
2018-07-11T12:09:34.179Z,19.60
2018-07-11T12:12:02.768Z,19.50
2018-07-11T12:14:31.281Z,19.20
2018-07-11T12:16:58.798Z,19.10
2018-07-11T12:19:26.258Z,19.00
2018-07-11T12:21:54.437Z,18.90
2018-07-11T12:24:22.137Z,19.30
2018-07-11T12:26:50.397Z,19.20
2018-07-11T12:29:18.016Z,19.00
2018-07-11T12:31:45.982Z,19.10
2018-07-11T12:34:14.241Z,19.30
2018-07-11T12:36:44.634Z,19.10
2018-07-11T12:39:14.052Z,19.10
2018-07-11T12:41:41.573Z,18.90
2018-07-11T12:44:09.057Z,19.20
2018-07-11T12:46:36.721Z,19.40
2018-07-11T12:49:05.837Z,19.70
2018-07-11T12:51:33.651Z,19.90
2018-07-11T12:54:01.501Z,19.90
2018-07-11T12:56:29.161Z,19.90
2018-07-11T12:58:57.219Z,19.50
2018-07-11T13:01:24.577Z,19.40
2018-07-11T13:03:54.056Z,19.40
2018-07-11T13:06:23.433Z,19.50
2018-07-11T13:08:50.949Z,19.60
2018-07-11T13:11:18.440Z,19.50
2018-07-11T13:13:45.934Z,19.70
2018-07-11T13:16:13.452Z,20.00
2018-07-11T13:18:41.702Z,20.00
2018-07-11T13:21:09.192Z,20.00
2018-07-11T13:23:36.646Z,19.90
2018-07-11T13:26:03.987Z,19.80
2018-07-11T13:28:31.543Z,19.90
2018-07-11T13:30:58.887Z,19.60
2018-07-11T13:33:26.377Z,19.60
2018-07-11T13:35:53.921Z,20.00
2018-07-11T13:38:21.435Z,20.30
2018-07-11T13:40:48.853Z,20.40
2018-07-11T13:45:43.729Z,20.50
2018-07-11T13:48:11.054Z,20.60
2018-07-11T13:50:38.482Z,20.90
2018-07-11T13:53:06.065Z,20.90
2018-07-11T13:55:35.979Z,21.10
2018-07-11T13:58:03.605Z,20.90
2018-07-11T14:00:32.123Z,20.80
2018-07-11T14:03:00.072Z,21.00
2018-07-11T14:05:27.442Z,21.10
2018-07-11T14:07:54.838Z,21.20
2018-07-11T14:10:22.263Z,21.40
2018-07-11T14:12:49.747Z,21.10
2018-07-11T14:15:17.492Z,21.00
2018-07-11T14:17:45.066Z,20.90
2018-07-11T14:20:12.495Z,20.70
2018-07-11T14:22:39.926Z,20.70
2018-07-11T14:25:07.335Z,20.40
2018-07-11T14:27:49.122Z,20.20
2018-07-11T14:30:16.756Z,20.10
2018-07-11T14:32:49.971Z,20.00
2018-07-11T14:35:18.062Z,19.90
2018-07-11T14:37:46.477Z,19.90
2018-07-11T14:40:14.160Z,19.70
2018-07-11T14:42:42.225Z,19.50
2018-07-11T14:45:09.741Z,19.20
2018-07-11T14:47:43.322Z,19.10
2018-07-11T14:50:10.888Z,19.20
2018-07-11T14:52:38.587Z,19.30
2018-07-11T14:55:06.060Z,19.40
2018-07-11T14:57:33.904Z,19.40
2018-07-11T15:00:01.576Z,19.30
2018-07-11T15:02:29.099Z,19.30
2018-07-11T15:04:56.499Z,19.40
2018-07-11T15:07:23.935Z,19.20
2018-07-11T15:09:51.417Z,19.10
2018-07-11T15:12:18.806Z,19.10
2018-07-11T15:14:46.343Z,19.00
2018-07-11T15:17:13.943Z,19.10
2018-07-11T15:19:41.325Z,19.20
2018-07-11T15:22:09.176Z,19.10
2018-07-11T15:24:37.203Z,19.20
2018-07-11T15:27:05.026Z,19.10
2018-07-11T15:29:32.499Z,19.10
2018-07-11T15:32:00.448Z,19.10
2018-07-11T15:34:28.059Z,19.20
2018-07-11T15:36:55.801Z,19.50
2018-07-11T15:39:24.989Z,19.50
2018-07-11T15:41:52.593Z,19.50
2018-07-11T15:44:20.081Z,19.60
2018-07-11T15:46:47.435Z,19.50
2018-07-11T15:49:14.899Z,19.60
2018-07-11T15:51:42.341Z,19.50
2018-07-11T15:54:10.103Z,19.40
2018-07-11T15:56:37.660Z,19.50
2018-07-11T15:59:07.257Z,19.50
2018-07-11T16:01:37.913Z,19.30
2018-07-11T16:04:05.347Z,19.40
2018-07-11T16:06:32.739Z,19.60
2018-07-11T16:09:00.659Z,19.90
2018-07-11T16:11:28.539Z,19.80
2018-07-11T16:13:56.237Z,19.90
2018-07-11T16:16:23.623Z,20.00
2018-07-11T16:18:51.108Z,19.70
2018-07-11T16:21:34.258Z,19.70
2018-07-11T16:24:02.053Z,19.70
2018-07-11T16:26:39.110Z,19.60
2018-07-11T16:29:06.600Z,19.60
2018-07-11T16:31:33.947Z,19.40
2018-07-11T16:34:01.485Z,19.30
2018-07-11T16:36:29.053Z,19.20
2018-07-11T16:38:57.078Z,19.20
2018-07-11T16:41:24.558Z,19.10
2018-07-11T16:43:52.154Z,19.10
2018-07-11T16:46:19.628Z,19.00
2018-07-11T16:48:47.088Z,19.00
2018-07-11T16:53:41.977Z,18.80
2018-07-11T16:56:09.785Z,18.70
2018-07-11T16:58:43.401Z,18.60
2018-07-11T17:01:10.975Z,18.50
2018-07-11T17:03:39.796Z,18.50
2018-07-11T17:06:08.538Z,18.50
2018-07-11T17:08:39.380Z,18.50
2018-07-11T17:11:16.204Z,18.20
2018-07-11T17:16:14.260Z,17.90
2018-07-11T17:18:46.044Z,17.90
2018-07-11T17:21:34.400Z,17.90
2018-07-11T17:24:07.486Z,17.80
2018-07-11T17:26:36.294Z,17.80
2018-07-11T17:29:03.908Z,17.80
2018-07-11T17:31:33.129Z,17.60
2018-07-11T17:34:00.635Z,17.60
2018-07-11T17:36:33.784Z,17.80
2018-07-11T17:39:02.210Z,17.80
2018-07-11T17:41:30.066Z,17.90
2018-07-11T17:44:00.738Z,18.00
2018-07-11T17:46:28.255Z,18.00
2018-07-11T17:49:05.374Z,17.90
2018-07-11T17:52:01.181Z,17.90
2018-07-11T17:55:33.558Z,17.80
2018-07-11T17:58:06.394Z,17.80
2018-07-11T18:05:35.830Z,17.80
2018-07-11T18:08:07.201Z,17.90
2018-07-11T18:10:44.479Z,17.90
2018-07-11T18:13:27.937Z,17.80
2018-07-11T18:17:05.406Z,17.90
2018-07-11T18:19:44.395Z,17.90
2018-07-11T18:24:26.827Z,17.90
2018-07-11T18:27:05.307Z,18.10
2018-07-11T18:30:42.781Z,17.90
2018-07-11T18:33:24.592Z,17.90
2018-07-11T18:36:07.433Z,17.90
2018-07-11T18:38:45.423Z,17.70
2018-07-11T18:42:28.815Z,17.70
2018-07-11T18:50:58.981Z,17.50
2018-07-11T18:53:34.045Z,17.40
2018-07-11T18:56:14.822Z,17.40
2018-07-11T18:58:51.793Z,17.40
2018-07-11T19:01:27.001Z,17.40
2018-07-11T19:07:39.866Z,17.30
2018-07-11T19:10:07.465Z,17.30
2018-07-11T19:12:44.384Z,17.20
2018-07-11T19:15:15.876Z,17.30
2018-07-11T19:17:58.070Z,17.10
2018-07-11T19:20:34.475Z,17.00
2018-07-11T19:24:17.964Z,17.00
2018-07-11T19:26:54.435Z,17.00
2018-07-11T19:30:33.267Z,17.00
2018-07-11T19:33:44.117Z,16.90
2018-07-11T19:36:39.755Z,16.90
2018-07-11T19:39:12.664Z,16.80
2018-07-11T19:41:54.377Z,16.70
2018-07-11T19:44:32.317Z,16.70
2018-07-11T19:49:24.001Z,16.60
2018-07-11T19:54:10.943Z,16.50
2018-07-11T19:56:40.794Z,16.30
2018-07-11T19:59:08.333Z,16.30
2018-07-11T20:01:38.693Z,16.20
2018-07-11T20:04:08.529Z,16.20
2018-07-11T20:06:39.504Z,16.30
2018-07-11T20:09:08.609Z,16.20
2018-07-11T20:11:38.407Z,16.30
2018-07-11T20:14:10.149Z,16.20
2018-07-11T20:16:38.554Z,16.20
2018-07-11T20:19:08.983Z,16.20
2018-07-11T20:21:38.558Z,16.10
2018-07-11T20:24:07.815Z,16.00
2018-07-11T20:26:37.556Z,16.00
2018-07-11T20:29:05.655Z,15.90
2018-07-11T20:31:33.206Z,15.80
2018-07-11T20:34:00.655Z,15.80
2018-07-11T20:36:28.903Z,15.80
2018-07-11T20:39:00.885Z,15.70
2018-07-11T20:41:29.429Z,15.70
2018-07-11T20:43:58.108Z,15.70
2018-07-11T20:46:27.334Z,15.60
2018-07-11T20:48:54.788Z,15.50
2018-07-11T20:51:22.253Z,15.50
2018-07-11T20:53:49.736Z,15.60
2018-07-11T20:56:19.077Z,15.50
2018-07-11T20:58:57.959Z,15.50
2018-07-11T21:01:37.065Z,15.40
2018-07-11T21:04:16.127Z,15.40
2018-07-11T21:09:06.431Z,15.30
2018-07-11T21:14:03.664Z,15.30
2018-07-11T21:16:45.651Z,15.20
2018-07-11T21:19:13.508Z,15.30
2018-07-11T21:21:42.151Z,15.10
2018-07-11T21:24:11.628Z,15.20
2018-07-11T21:26:39.755Z,15.10
2018-07-11T21:29:08.954Z,15.10
2018-07-11T21:31:37.074Z,15.10
2018-07-11T21:34:05.583Z,15.10
2018-07-11T21:36:33.870Z,15.10
2018-07-11T21:39:01.835Z,15.00
2018-07-11T21:41:30.153Z,15.00
2018-07-11T21:43:57.765Z,15.00
2018-07-11T21:46:25.671Z,15.20
2018-07-11T21:48:53.423Z,15.00
2018-07-11T21:51:21.021Z,15.20
2018-07-11T21:53:48.710Z,15.20
2018-07-11T21:56:16.547Z,15.20
2018-07-11T21:58:44.286Z,15.30
2018-07-11T22:01:12.715Z,15.10
2018-07-11T22:03:40.795Z,14.90
2018-07-11T22:06:09.788Z,14.90
2018-07-11T22:08:37.498Z,14.90
2018-07-11T22:11:05.221Z,14.90
2018-07-11T22:13:32.797Z,14.80
2018-07-11T22:16:00.450Z,14.80
2018-07-11T22:18:41.977Z,14.80
2018-07-11T22:21:10.436Z,14.70
2018-07-11T22:23:37.071Z,14.70
2018-07-11T22:26:03.569Z,14.70
2018-07-11T22:28:30.130Z,14.70
2018-07-11T22:30:56.462Z,14.70
2018-07-11T22:33:22.940Z,14.70
2018-07-11T22:35:49.360Z,14.70
2018-07-11T22:38:15.694Z,14.80
2018-07-11T22:40:42.736Z,14.80
2018-07-11T22:43:09.066Z,14.80
2018-07-11T22:45:35.556Z,14.80
2018-07-11T22:48:02.019Z,14.80
2018-07-11T22:50:28.680Z,14.80
2018-07-11T22:52:55.072Z,14.80
2018-07-11T22:55:21.648Z,14.90
2018-07-11T22:57:48.314Z,15.00
2018-07-11T23:00:14.758Z,14.90
2018-07-11T23:02:41.082Z,14.90
2018-07-11T23:05:07.521Z,14.90
2018-07-11T23:07:34.052Z,14.80
2018-07-11T23:10:00.464Z,14.80
2018-07-11T23:12:26.789Z,14.80
2018-07-11T23:14:53.233Z,14.90
2018-07-11T23:17:19.614Z,14.90
2018-07-11T23:19:45.998Z,14.80
2018-07-11T23:22:12.358Z,14.80
2018-07-11T23:24:38.818Z,14.90
2018-07-11T23:27:05.194Z,14.90
2018-07-11T23:29:31.544Z,15.00
2018-07-11T23:31:57.918Z,15.00
2018-07-11T23:34:24.250Z,14.90
2018-07-11T23:36:50.625Z,15.00
2018-07-11T23:39:17.066Z,15.00
2018-07-11T23:41:43.436Z,15.00
2018-07-11T23:44:09.806Z,15.10
2018-07-11T23:46:36.182Z,15.00
2018-07-11T23:49:02.542Z,15.10
2018-07-11T23:51:28.926Z,15.20
2018-07-11T23:53:55.341Z,15.10
2018-07-11T23:56:21.717Z,15.00
2018-07-11T23:58:48.099Z,15.00
